Time;durP1;ratioP1;P1;durP2;ratioP2;P2;SDS_P1;SDS_P2;PMS_P1;PMS_P2;Temp;Humidity;BMP_temperature;BMP_pressure;BME280_temperature;BME280_humidity;BME280_pressure;Samples;Min_cycle;Max_cycle;Signal;HPM_P1;HPM_P2
2023/08/13 00:01:43;;;;;;;10.88;2.80;;;17.80;94.80;;;;;;4954207;28;92760;-74
2023/08/13 00:04:08;;;;;;;10.15;2.40;;;17.70;95.00;;;;;;4965747;28;94883;-74
2023/08/13 00:06:34;;;;;;;9.25;2.53;;;17.80;95.10;;;;;;4965725;28;94838;-74
2023/08/13 00:08:59;;;;;;;11.90;2.45;;;17.70;95.10;;;;;;4965187;28;92767;-75
2023/08/13 00:11:25;;;;;;;8.20;2.33;;;17.70;95.00;;;;;;4965502;28;92765;-74
2023/08/13 00:13:51;;;;;;;6.63;1.88;;;17.70;95.00;;;;;;4964580;28;93512;-75
2023/08/13 00:16:16;;;;;;;10.50;2.28;;;17.70;95.30;;;;;;4964771;28;93018;-74
2023/08/13 00:18:42;;;;;;;10.63;2.50;;;17.70;95.10;;;;;;4965683;28;92781;-75
2023/08/13 00:21:08;;;;;;;13.75;2.83;;;17.60;95.20;;;;;;4962809;28;92436;-74
2023/08/13 00:23:33;;;;;;;7.55;2.05;;;17.60;95.20;;;;;;4964762;28;92617;-74
2023/08/13 00:25:59;;;;;;;6.65;2.00;;;17.60;95.10;;;;;;4964717;28;92679;-74
2023/08/13 00:28:25;;;;;;;12.05;2.90;;;17.60;95.10;;;;;;4963714;28;93724;-74
2023/08/13 00:30:50;;;;;;;11.10;2.33;;;17.50;95.20;;;;;;4964907;28;92551;-74
2023/08/13 00:33:16;;;;;;;7.85;2.13;;;17.50;95.30;;;;;;4963483;28;93883;-74
2023/08/13 00:35:41;;;;;;;9.80;2.47;;;17.40;95.30;;;;;;4962920;28;93500;-75
2023/08/13 00:38:08;;;;;;;14.13;2.35;;;17.40;95.40;;;;;;4963762;28;92887;-74
2023/08/13 00:40:34;;;;;;;8.40;2.28;;;17.40;95.40;;;;;;4964764;28;93034;-75
2023/08/13 00:43:00;;;;;;;9.88;2.17;;;17.30;95.40;;;;;;4964951;28;93579;-75
2023/08/13 00:45:25;;;;;;;12.93;2.53;;;17.30;95.40;;;;;;4961878;28;93566;-74
2023/08/13 00:47:52;;;;;;;11.68;3.08;;;17.30;95.20;;;;;;4965889;28;92958;-74
2023/08/13 00:50:17;;;;;;;9.23;2.08;;;17.30;95.30;;;;;;4964259;28;92446;-74
2023/08/13 00:52:44;;;;;;;6.72;1.85;;;17.20;95.10;;;;;;4964069;28;94312;-74
2023/08/13 00:55:10;;;;;;;12.82;2.00;;;17.20;95.00;;;;;;4964263;28;94182;-74
2023/08/13 00:57:35;;;;;;;7.75;2.17;;;17.20;94.90;;;;;;4964000;28;92768;-74
2023/08/13 01:00:02;;;;;;;11.25;2.33;;;17.20;94.90;;;;;;4963821;28;92772;-74
2023/08/13 01:02:28;;;;;;;12.30;2.10;;;17.20;94.90;;;;;;4962285;28;93478;-74
2023/08/13 01:04:54;;;;;;;12.23;2.00;;;17.20;94.90;;;;;;4961754;28;101042;-75
2023/08/13 01:07:41;;;;;;;9.60;1.98;;;17.20;94.80;;;;;;4963747;28;92878;-74
2023/08/13 01:10:33;;;;;;;8.52;2.00;;;17.20;94.80;;;;;;4964943;28;92090;-75
2023/08/13 01:12:58;;;;;;;12.30;1.92;;;17.20;94.70;;;;;;4962624;28;93978;-74
2023/08/13 01:15:33;;;;;;;9.77;1.90;;;17.10;95.00;;;;;;4963273;28;93013;-75
2023/08/13 01:18:01;;;;;;;7.63;1.58;;;17.10;94.90;;;;;;4963933;28;93503;-74
2023/08/13 01:20:32;;;;;;;20.65;2.30;;;17.10;95.40;;;;;;4963698;28;92561;-74
2023/08/13 01:22:58;;;;;;;8.50;1.70;;;17.10;95.40;;;;;;4963811;28;94067;-75
2023/08/13 01:25:26;;;;;;;9.70;1.80;;;17.10;95.60;;;;;;4963371;28;93383;-74
2023/08/13 01:28:12;;;;;;;6.57;1.63;;;17.10;95.50;;;;;;4963046;28;92648;-74
2023/08/13 01:30:40;;;;;;;6.63;1.45;;;17.00;95.40;;;;;;4963181;28;92799;-74
2023/08/13 01:33:18;;;;;;;8.05;1.52;;;17.00;95.20;;;;;;4963772;28;94058;-74
2023/08/13 01:35:45;;;;;;;7.78;1.67;;;17.00;95.40;;;;;;4964786;28;93629;-75
2023/08/13 01:38:11;;;;;;;8.23;1.88;;;17.00;95.50;;;;;;4964907;28;92528;-74
2023/08/13 01:40:36;;;;;;;3.85;1.48;;;16.90;95.50;;;;;;4964531;28;93109;-74
2023/08/13 01:43:02;;;;;;;8.35;1.60;;;16.90;95.50;;;;;;4961348;28;94595;-75
2023/08/13 01:45:27;;;;;;;10.63;2.10;;;16.90;95.80;;;;;;4963292;28;93538;-75
2023/08/13 01:47:53;;;;;;;6.85;1.45;;;16.80;95.80;;;;;;4966260;28;92503;-74
2023/08/13 01:50:22;;;;;;;5.30;1.55;;;16.80;95.80;;;;;;4963247;28;92951;-74
2023/08/13 01:52:48;;;;;;;7.13;1.50;;;16.80;95.90;;;;;;4962571;28;93624;-75
2023/08/13 01:55:13;;;;;;;7.18;1.80;;;16.70;95.70;;;;;;4963158;28;94115;-74
2023/08/13 01:57:39;;;;;;;12.95;2.13;;;16.70;95.80;;;;;;4963803;28;92462;-74
2023/08/13 02:00:07;;;;;;;7.22;1.73;;;16.70;95.90;;;;;;4962505;28;91871;-75
2023/08/13 02:02:36;;;;;;;8.00;1.50;;;16.60;96.00;;;;;;4963026;28;93186;-75
2023/08/13 02:05:01;;;;;;;6.57;2.20;;;16.60;96.10;;;;;;4962646;28;93857;-74
2023/08/13 02:07:27;;;;;;;10.20;1.60;;;16.50;96.00;;;;;;4962536;28;93544;-74
2023/08/13 02:09:53;;;;;;;10.38;1.85;;;16.50;96.10;;;;;;4945453;28;93069;-74
2023/08/13 02:12:18;;;;;;;8.70;1.75;;;16.40;96.30;;;;;;4963651;28;93464;-74
2023/08/13 02:14:44;;;;;;;8.02;1.70;;;16.40;96.50;;;;;;4944967;28;96205;-74
2023/08/13 02:17:12;;;;;;;10.18;1.65;;;16.40;96.60;;;;;;4962389;28;92489;-74
2023/08/13 02:19:39;;;;;;;8.80;1.40;;;16.30;96.50;;;;;;4963405;28;92986;-74
2023/08/13 02:22:06;;;;;;;6.93;1.60;;;16.30;96.50;;;;;;4962387;28;94998;-75
2023/08/13 02:24:31;;;;;;;5.90;1.70;;;16.30;96.60;;;;;;4947007;28;96515;-74
2023/08/13 02:26:57;;;;;;;8.00;2.28;;;16.30;96.70;;;;;;4966422;28;92614;-74
2023/08/13 02:29:22;;;;;;;5.50;1.75;;;16.30;96.70;;;;;;4963357;28;92442;-74
2023/08/13 02:31:48;;;;;;;6.25;1.73;;;16.20;96.70;;;;;;4961054;28;94464;-75
2023/08/13 02:34:14;;;;;;;7.70;1.63;;;16.20;96.80;;;;;;4962678;28;94292;-74
2023/08/13 02:36:39;;;;;;;5.78;1.92;;;16.20;96.80;;;;;;4946106;28;92935;-74
2023/08/13 02:39:05;;;;;;;8.13;2.03;;;16.10;96.90;;;;;;4966601;28;92157;-75
2023/08/13 02:41:31;;;;;;;7.07;1.70;;;16.10;96.90;;;;;;4968497;28;92955;-74
2023/08/13 02:43:57;;;;;;;7.60;1.63;;;16.10;97.00;;;;;;4967403;28;93586;-74
2023/08/13 02:46:24;;;;;;;7.43;1.48;;;16.00;97.10;;;;;;4966948;28;92697;-74
2023/08/13 02:48:53;;;;;;;6.47;1.90;;;16.00;97.20;;;;;;4966808;28;92074;-74
2023/08/13 02:51:19;;;;;;;8.43;1.90;;;16.00;97.30;;;;;;4965306;28;92681;-74
2023/08/13 02:53:45;;;;;;;5.15;1.63;;;15.90;97.60;;;;;;4967798;28;92888;-75
2023/08/13 02:56:10;;;;;;;9.00;2.10;;;15.90;97.50;;;;;;4965292;28;93887;-74
2023/08/13 02:58:36;;;;;;;7.53;1.65;;;15.80;97.50;;;;;;4966971;28;92555;-74
2023/08/13 03:01:02;;;;;;;6.35;1.50;;;15.90;97.50;;;;;;4966176;28;93245;-74
2023/08/13 03:03:28;;;;;;;6.78;1.58;;;15.80;97.50;;;;;;4948731;28;95175;-74
2023/08/13 03:05:54;;;;;;;7.85;2.15;;;15.80;97.50;;;;;;4967667;28;93069;-74
2023/08/13 03:08:20;;;;;;;5.90;2.17;;;15.80;97.50;;;;;;4967107;28;92670;-74
2023/08/13 03:10:45;;;;;;;7.25;2.78;;;15.80;97.70;;;;;;4966515;28;92872;-74
2023/08/13 03:13:11;;;;;;;9.18;1.80;;;15.70;97.70;;;;;;4967866;28;93821;-74
2023/08/13 03:15:37;;;;;;;6.72;1.65;;;15.70;97.70;;;;;;4967491;28;92671;-74
2023/08/13 03:18:03;;;;;;;8.25;1.58;;;15.60;97.70;;;;;;4966578;28;93073;-75
2023/08/13 03:20:28;;;;;;;8.13;1.90;;;15.60;97.70;;;;;;4965114;28;94078;-75
2023/08/13 03:22:54;;;;;;;8.52;1.83;;;15.60;97.70;;;;;;4965011;28;93834;-74
2023/08/13 03:25:20;;;;;;;6.03;1.70;;;15.50;97.80;;;;;;4965654;28;92716;-74
2023/08/13 03:27:48;;;;;;;7.68;1.75;;;15.50;97.90;;;;;;4966628;28;92796;-74
2023/08/13 03:30:13;;;;;;;8.35;2.00;;;15.40;98.10;;;;;;4966229;28;93257;-74
2023/08/13 03:32:39;;;;;;;7.10;1.90;;;15.40;98.10;;;;;;4966962;28;92982;-75
2023/08/13 03:35:05;;;;;;;6.25;1.70;;;15.40;98.20;;;;;;4964728;28;92736;-74
2023/08/13 03:37:30;;;;;;;5.10;1.48;;;15.40;98.10;;;;;;4966120;28;91953;-74
2023/08/13 03:39:56;;;;;;;8.40;2.08;;;15.30;98.10;;;;;;4965209;28;94306;-74
2023/08/13 03:42:21;;;;;;;6.47;1.85;;;15.30;98.30;;;;;;4965264;28;93181;-75
2023/08/13 03:44:47;;;;;;;6.45;1.70;;;15.30;98.50;;;;;;4967271;28;93687;-74
2023/08/13 03:47:13;;;;;;;8.98;2.25;;;15.30;98.50;;;;;;4965546;28;92399;-74
2023/08/13 03:49:38;;;;;;;9.20;1.92;;;15.30;98.60;;;;;;4962434;28;93236;-74
2023/08/13 03:52:04;;;;;;;10.13;2.78;;;15.20;98.70;;;;;;4965290;28;93272;-74
2023/08/13 03:54:30;;;;;;;7.25;2.35;;;15.20;98.80;;;;;;4966200;28;92325;-75
2023/08/13 03:56:56;;;;;;;5.32;2.00;;;15.20;98.90;;;;;;4965661;28;92865;-74
2023/08/13 03:59:22;;;;;;;5.72;1.85;;;15.20;98.90;;;;;;4964675;28;92939;-75
2023/08/13 04:01:47;;;;;;;10.10;2.85;;;15.20;99.10;;;;;;4948596;28;95193;-74
2023/08/13 04:04:13;;;;;;;11.13;2.22;;;15.20;99.20;;;;;;4967782;28;92892;-75
2023/08/13 04:06:39;;;;;;;11.20;3.13;;;15.20;99.30;;;;;;4966378;28;92563;-75
2023/08/13 04:09:05;;;;;;;8.05;2.40;;;15.10;99.40;;;;;;4965270;28;94523;-74
2023/08/13 04:11:31;;;;;;;12.00;2.58;;;15.10;99.50;;;;;;4964240;28;94068;-75
2023/08/13 04:13:56;;;;;;;10.85;2.80;;;15.10;99.50;;;;;;4966515;28;92905;-74
2023/08/13 04:16:22;;;;;;;11.15;3.17;;;15.10;99.60;;;;;;4962248;28;92696;-74
2023/08/13 04:18:50;;;;;;;14.77;3.40;;;15.10;99.70;;;;;;4962495;28;94171;-75
2023/08/13 04:21:16;;;;;;;9.25;2.88;;;15.00;99.70;;;;;;4964960;28;92868;-74
2023/08/13 04:23:41;;;;;;;8.63;2.40;;;15.10;99.80;;;;;;4965870;28;92918;-74
2023/08/13 04:26:07;;;;;;;10.27;2.50;;;15.00;99.90;;;;;;4965704;28;92010;-74
2023/08/13 04:28:33;;;;;;;8.73;2.28;;;15.10;99.80;;;;;;4963730;28;93698;-74
2023/08/13 04:30:59;;;;;;;8.38;2.30;;;15.10;99.90;;;;;;4947266;28;95730;-74
2023/08/13 04:33:25;;;;;;;10.65;2.47;;;15.10;99.90;;;;;;4963552;28;93056;-74
2023/08/13 04:35:54;;;;;;;11.23;2.60;;;15.10;99.90;;;;;;4964914;28;92741;-75
2023/08/13 04:38:21;;;;;;;9.13;2.30;;;15.10;99.90;;;;;;4964564;28;93196;-74
2023/08/13 04:40:48;;;;;;;7.97;2.50;;;15.10;99.90;;;;;;4964253;28;93341;-74
2023/08/13 04:43:14;;;;;;;14.30;2.75;;;15.10;99.90;;;;;;4962845;28;93045;-74
2023/08/13 04:45:40;;;;;;;8.10;2.65;;;15.10;99.90;;;;;;4964924;28;92718;-75
2023/08/13 04:48:06;;;;;;;11.45;3.20;;;15.10;99.90;;;;;;4965279;28;93839;-74
2023/08/13 04:50:32;;;;;;;12.77;3.17;;;15.10;99.90;;;;;;4963765;28;94240;-74
2023/08/13 04:52:58;;;;;;;8.95;2.60;;;15.20;99.90;;;;;;4963363;28;92643;-75
2023/08/13 04:55:24;;;;;;;10.95;3.13;;;15.20;99.90;;;;;;4962430;28;93160;-74
2023/08/13 04:57:49;;;;;;;5.47;2.83;;;15.20;99.90;;;;;;4963682;28;94415;-75
2023/08/13 05:00:15;;;;;;;10.13;2.95;;;15.20;99.90;;;;;;4962196;28;94166;-75
2023/08/13 05:02:41;;;;;;;11.38;2.58;;;15.30;99.90;;;;;;4964906;28;92562;-75
2023/08/13 05:05:07;;;;;;;7.00;2.42;;;15.30;99.90;;;;;;4964392;28;92271;-74
2023/08/13 05:07:33;;;;;;;10.45;2.95;;;15.30;99.90;;;;;;4963079;28;92887;-74
2023/08/13 05:09:58;;;;;;;8.23;2.40;;;15.40;99.90;;;;;;4963390;28;93827;-74
2023/08/13 05:12:24;;;;;;;10.35;2.60;;;15.40;99.90;;;;;;4963591;28;94318;-74
2023/08/13 05:14:50;;;;;;;8.38;3.03;;;15.40;99.90;;;;;;4964428;28;91901;-74
2023/08/13 05:17:19;;;;;;;11.55;3.17;;;15.40;99.90;;;;;;4964535;28;94231;-74
2023/08/13 05:19:45;;;;;;;8.40;3.13;;;15.50;99.90;;;;;;4953728;28;93962;-75
2023/08/13 05:22:11;;;;;;;10.25;2.83;;;15.60;99.90;;;;;;4963076;28;93767;-74
2023/08/13 05:24:37;;;;;;;13.18;2.90;;;15.60;99.90;;;;;;4963337;28;92210;-74
2023/08/13 05:27:03;;;;;;;7.15;2.67;;;15.60;99.90;;;;;;4946874;28;96654;-75
2023/08/13 05:29:29;;;;;;;13.25;2.20;;;15.70;99.90;;;;;;4962517;28;92662;-74
2023/08/13 05:31:54;;;;;;;11.77;3.22;;;15.70;99.90;;;;;;4963731;28;92628;-75
2023/08/13 05:34:20;;;;;;;10.48;2.85;;;15.80;99.90;;;;;;4963999;28;92905;-74
2023/08/13 05:36:46;;;;;;;13.57;3.42;;;15.80;99.90;;;;;;4961879;28;93600;-75
2023/08/13 05:39:11;;;;;;;17.20;3.67;;;15.80;99.90;;;;;;4963636;28;91958;-74
2023/08/13 05:41:37;;;;;;;11.73;4.10;;;15.90;99.90;;;;;;4963913;28;93117;-75
2023/08/13 05:44:03;;;;;;;14.25;3.72;;;15.90;99.90;;;;;;4965358;28;92825;-74
2023/08/13 05:46:29;;;;;;;16.27;3.70;;;16.00;99.90;;;;;;4963031;28;94704;-74
2023/08/13 05:48:54;;;;;;;12.73;3.28;;;16.00;99.90;;;;;;4964137;28;94256;-74
2023/08/13 05:51:20;;;;;;;16.02;4.10;;;16.00;99.90;;;;;;4963842;28;92586;-75
2023/08/13 05:53:46;;;;;;;9.55;3.22;;;16.10;99.90;;;;;;4964460;28;92920;-75
2023/08/13 05:56:12;;;;;;;12.77;3.95;;;16.10;99.90;;;;;;4962311;28;94926;-74
2023/08/13 05:58:37;;;;;;;13.02;4.40;;;16.20;99.90;;;;;;4962650;28;93402;-75
2023/08/13 06:01:03;;;;;;;13.95;4.00;;;16.20;99.90;;;;;;4963139;28;92540;-74
2023/08/13 06:03:29;;;;;;;8.02;3.40;;;16.20;99.90;;;;;;4964557;28;92161;-74
2023/08/13 06:05:55;;;;;;;12.35;3.95;;;16.30;99.90;;;;;;4963808;28;93900;-75
2023/08/13 06:08:21;;;;;;;11.10;3.35;;;16.30;99.90;;;;;;4963893;28;93413;-78
2023/08/13 06:10:46;;;;;;;14.25;4.57;;;16.40;99.90;;;;;;4960658;28;93653;-78
2023/08/13 06:13:12;;;;;;;10.73;3.80;;;16.40;99.90;;;;;;4944700;28;92711;-78
2023/08/13 06:15:38;;;;;;;9.95;3.47;;;16.50;99.90;;;;;;4965236;28;93235;-78
2023/08/13 06:18:04;;;;;;;14.13;3.80;;;16.60;99.90;;;;;;4966045;28;96210;-78
2023/08/13 06:20:31;;;;;;;7.05;2.75;;;16.70;99.90;;;;;;4947969;28;92591;-78
2023/08/13 06:22:57;;;;;;;8.82;3.53;;;16.80;99.90;;;;;;4948740;28;92226;-78
2023/08/13 06:25:22;;;;;;;13.35;3.83;;;16.90;99.90;;;;;;4956305;28;95596;-78
2023/08/13 06:27:48;;;;;;;16.63;4.15;;;16.90;99.90;;;;;;4966203;28;93582;-78
2023/08/13 06:30:14;;;;;;;13.10;4.18;;;17.00;99.80;;;;;;4966365;28;92819;-78
2023/08/13 06:32:39;;;;;;;12.07;3.55;;;17.10;99.70;;;;;;4949361;28;92812;-78
2023/08/13 06:35:06;;;;;;;9.23;3.30;;;17.20;99.30;;;;;;4946383;28;97503;-78
2023/08/13 06:37:32;;;;;;;11.15;3.65;;;17.30;99.10;;;;;;4966547;28;93902;-78
2023/08/13 06:39:57;;;;;;;13.55;4.03;;;17.40;98.80;;;;;;4947676;28;92691;-81
2023/08/13 06:42:23;;;;;;;13.05;3.10;;;17.50;98.70;;;;;;4964564;28;92470;-83
2023/08/13 06:44:49;;;;;;;12.93;3.15;;;17.60;98.30;;;;;;4973426;28;96773;-85
2023/08/13 06:47:15;;;;;;;9.52;3.13;;;17.70;98.60;;;;;;4965873;28;96056;-83
2023/08/13 06:49:40;;;;;;;11.60;3.33;;;17.80;98.60;;;;;;4951670;28;92728;-85
2023/08/13 06:52:06;;;;;;;13.65;3.20;;;18.00;98.00;;;;;;4966977;28;91995;-84
2023/08/13 06:54:32;;;;;;;10.95;3.38;;;18.10;98.00;;;;;;4948545;28;95237;-85
2023/08/13 06:56:59;;;;;;;9.82;3.15;;;18.20;98.00;;;;;;4957297;28;96057;-83
2023/08/13 06:59:24;;;;;;;11.75;3.08;;;18.30;97.80;;;;;;4957468;28;93221;-85
2023/08/13 07:01:50;;;;;;;13.38;3.22;;;18.50;97.90;;;;;;4966504;28;92725;-84
2023/08/13 07:04:16;;;;;;;9.77;2.90;;;18.60;97.30;;;;;;4966985;28;94132;-85
2023/08/13 07:06:42;;;;;;;12.63;3.80;;;18.80;97.20;;;;;;4965352;28;96464;-85
2023/08/13 07:09:07;;;;;;;11.90;3.38;;;18.90;97.30;;;;;;4966884;28;92387;-84
2023/08/13 07:11:34;;;;;;;10.30;2.83;;;19.10;96.40;;;;;;4948378;28;92777;-85
2023/08/13 07:14:03;;;;;;;12.70;2.72;;;19.20;96.90;;;;;;4956101;28;96295;-84
2023/08/13 07:16:29;;;;;;;9.50;2.70;;;19.30;96.40;;;;;;4967114;28;93964;-83
2023/08/13 07:18:55;;;;;;;33.40;3.50;;;19.50;96.00;;;;;;4965504;28;92830;-84
2023/08/13 07:21:21;;;;;;;13.60;2.88;;;19.60;95.80;;;;;;4963822;28;92688;-84
2023/08/13 07:23:47;;;;;;;9.20;2.63;;;19.70;95.80;;;;;;4947597;28;97725;-84
2023/08/13 07:26:13;;;;;;;9.02;2.47;;;19.90;95.20;;;;;;4963889;28;96242;-83
2023/08/13 07:28:40;;;;;;;11.68;2.97;;;20.00;95.50;;;;;;4963009;28;92409;-85
2023/08/13 07:31:06;;;;;;;11.10;3.47;;;20.10;94.70;;;;;;4972942;28;92816;-83
2023/08/13 07:33:33;;;;;;;14.32;3.42;;;20.20;94.70;;;;;;4962591;28;96419;-86
2023/08/13 07:36:02;;;;;;;14.65;2.95;;;20.30;94.70;;;;;;4956491;28;94896;-84
2023/08/13 07:38:29;;;;;;;13.90;2.80;;;20.40;94.90;;;;;;4947351;28;92712;-85
2023/08/13 07:40:56;;;;;;;6.82;2.45;;;20.40;94.40;;;;;;4947934;28;92235;-82
2023/08/13 07:43:24;;;;;;;13.70;3.15;;;20.60;94.80;;;;;;4946082;28;96930;-82
2023/08/13 07:45:50;;;;;;;11.85;4.13;;;20.70;95.10;;;;;;4965442;28;92671;-82
2023/08/13 07:48:17;;;;;;;11.57;2.88;;;20.90;94.30;;;;;;4946872;28;93417;-81
2023/08/13 07:50:43;;;;;;;10.45;2.75;;;20.90;93.90;;;;;;4966553;28;92677;-81
2023/08/13 07:53:09;;;;;;;12.00;2.95;;;21.10;94.50;;;;;;4946610;28;96452;-81
2023/08/13 07:55:35;;;;;;;10.63;3.13;;;21.20;94.10;;;;;;4965431;28;93391;-82
2023/08/13 07:58:00;;;;;;;12.88;2.60;;;21.30;93.60;;;;;;4968004;28;92538;-81
2023/08/13 08:00:26;;;;;;;15.35;2.83;;;21.40;93.40;;;;;;4952335;28;92891;-80
2023/08/13 08:02:53;;;;;;;12.00;3.05;;;21.40;93.00;;;;;;4968889;28;93018;-81
2023/08/13 08:05:20;;;;;;;11.40;2.65;;;21.40;93.30;;;;;;4968064;28;96176;-82
2023/08/13 08:07:45;;;;;;;10.13;2.88;;;21.50;93.00;;;;;;4971413;28;92598;-81
2023/08/13 08:10:11;;;;;;;9.40;2.50;;;21.40;92.80;;;;;;4951139;28;92793;-84
2023/08/13 08:12:37;;;;;;;9.85;3.55;;;21.40;92.20;;;;;;4964266;28;97039;-82
2023/08/13 08:15:05;;;;;;;10.02;2.83;;;21.40;92.70;;;;;;4968101;28;97103;-84
2023/08/13 08:17:31;;;;;;;12.23;2.78;;;21.50;93.00;;;;;;4976101;28;92393;-83
2023/08/13 08:19:59;;;;;;;9.00;2.85;;;21.50;92.90;;;;;;4965912;28;93160;-83
2023/08/13 08:22:26;;;;;;;9.15;2.28;;;21.60;92.50;;;;;;4965493;28;96495;-84
2023/08/13 08:24:52;;;;;;;10.02;2.75;;;21.70;93.00;;;;;;4968544;28;92582;-84
2023/08/13 08:27:17;;;;;;;10.02;2.72;;;21.70;92.80;;;;;;4948343;28;92792;-82
2023/08/13 08:29:43;;;;;;;7.60;2.50;;;21.90;92.30;;;;;;4968518;28;91816;-85
2023/08/13 08:32:09;;;;;;;7.22;1.95;;;21.90;91.10;;;;;;4958365;28;97210;-84
2023/08/13 08:34:35;;;;;;;9.63;2.55;;;22.10;91.50;;;;;;4970632;28;92688;-84
2023/08/13 08:37:03;;;;;;;7.15;2.35;;;22.20;90.70;;;;;;4967694;28;93761;-86
2023/08/13 08:39:29;;;;;;;9.18;2.88;;;22.30;91.80;;;;;;4968556;28;92437;-85
2023/08/13 08:41:56;;;;;;;9.40;2.40;;;22.30;91.00;;;;;;4951694;28;95714;-85
2023/08/13 08:44:25;;;;;;;9.48;2.10;;;22.40;90.70;;;;;;4954584;28;95684;-86
2023/08/13 08:46:53;;;;;;;5.70;1.85;;;22.50;90.40;;;;;;4950031;28;92806;-85
2023/08/13 08:49:23;;;;;;;14.40;2.00;;;22.60;90.20;;;;;;4952131;28;92254;-85
2023/08/13 08:51:50;;;;;;;5.80;2.20;;;22.80;90.10;;;;;;4952110;28;97556;-86
2023/08/13 08:54:18;;;;;;;6.60;1.90;;;22.80;88.60;;;;;;4965849;28;96462;-84
2023/08/13 08:56:44;;;;;;;8.35;1.98;;;22.90;87.50;;;;;;4969355;28;92248;-84
2023/08/13 08:59:10;;;;;;;5.20;1.70;;;23.00;87.20;;;;;;4950584;28;92537;-84
2023/08/13 09:01:36;;;;;;;7.18;1.83;;;23.10;87.50;;;;;;4964509;28;96143;-84
2023/08/13 09:04:02;;;;;;;8.77;1.67;;;23.10;86.80;;;;;;4963087;28;96728;-81
2023/08/13 09:06:52;;;;;;;6.40;1.95;;;23.20;87.70;;;;;;4963450;28;92868;-81
2023/08/13 09:09:18;;;;;;;9.52;1.80;;;23.30;85.70;;;;;;4955961;28;92761;-82
2023/08/13 09:11:45;;;;;;;8.02;2.00;;;23.50;84.10;;;;;;4950102;28;96955;-82
2023/08/13 09:14:11;;;;;;;12.48;1.92;;;23.60;86.70;;;;;;4948361;28;96921;-84
2023/08/13 09:16:37;;;;;;;5.53;1.85;;;23.70;83.90;;;;;;4967476;28;92382;-81
2023/08/13 09:19:03;;;;;;;10.50;1.80;;;23.90;81.70;;;;;;4951594;28;91972;-82
2023/08/13 09:21:29;;;;;;;7.22;1.83;;;24.00;82.80;;;;;;4965860;28;97704;-82
2023/08/13 09:23:56;;;;;;;5.22;1.75;;;24.20;79.30;;;;;;4952155;28;95067;-82
2023/08/13 09:26:25;;;;;;;6.93;1.40;;;24.30;80.30;;;;;;4948348;28;94352;-83
2023/08/13 09:28:51;;;;;;;7.47;1.85;;;24.40;79.90;;;;;;4950623;28;92598;-84
2023/08/13 09:31:17;;;;;;;9.20;1.83;;;24.40;80.00;;;;;;4967447;28;95228;-83
2023/08/13 09:33:45;;;;;;;9.23;2.15;;;24.50;79.60;;;;;;4967589;28;92783;-81
2023/08/13 09:36:11;;;;;;;8.43;2.05;;;24.60;76.80;;;;;;4950392;28;92860;-83
2023/08/13 09:38:37;;;;;;;10.38;1.83;;;24.60;78.90;;;;;;4949184;28;92658;-83
2023/08/13 09:41:05;;;;;;;10.73;2.53;;;24.70;75.80;;;;;;4951201;28;95907;-82
2023/08/13 09:43:32;;;;;;;8.40;2.05;;;24.80;76.20;;;;;;4949745;28;95578;-82
2023/08/13 09:46:00;;;;;;;4.80;1.33;;;24.90;77.70;;;;;;4956623;28;92183;-84
2023/08/13 09:48:27;;;;;;;8.10;2.15;;;24.90;73.60;;;;;;4949222;28;92784;-81
2023/08/13 09:50:55;;;;;;;8.63;2.03;;;24.90;74.10;;;;;;4946705;28;96555;-84
2023/08/13 09:53:24;;;;;;;7.18;1.58;;;25.00;74.50;;;;;;4945536;28;97623;-82
2023/08/13 09:56:02;;;;;;;10.38;1.60;;;25.00;75.20;;;;;;4947520;28;92230;-82
2023/08/13 09:58:28;;;;;;;9.90;1.85;;;25.10;73.60;;;;;;4966686;28;92771;-82
2023/08/13 10:00:55;;;;;;;9.93;2.00;;;25.20;74.60;;;;;;4947728;28;96611;-81
2023/08/13 10:03:22;;;;;;;6.72;1.73;;;25.20;72.60;;;;;;4964409;28;95212;-82
2023/08/13 10:05:49;;;;;;;8.73;2.10;;;25.30;73.40;;;;;;4948036;28;92947;-82
2023/08/13 10:08:15;;;;;;;10.38;1.38;;;25.30;71.30;;;;;;4971275;28;92050;-84
2023/08/13 10:10:41;;;;;;;9.35;1.90;;;25.30;71.80;;;;;;4947196;28;96493;-83
2023/08/13 10:13:07;;;;;;;7.32;1.50;;;25.40;71.20;;;;;;4966247;28;96052;-83
2023/08/13 10:15:35;;;;;;;7.88;1.73;;;25.40;72.10;;;;;;4965192;28;93733;-84
2023/08/13 10:18:02;;;;;;;5.72;1.33;;;25.30;70.80;;;;;;4946717;28;93597;-82
2023/08/13 10:20:28;;;;;;;8.38;1.80;;;25.30;69.70;;;;;;4960903;28;95620;-83
2023/08/13 10:22:54;;;;;;;6.57;1.98;;;25.30;70.00;;;;;;4962971;28;97119;-84
2023/08/13 10:25:32;;;;;;;7.65;1.80;;;25.20;69.80;;;;;;4954372;28;92736;-83
2023/08/13 10:27:59;;;;;;;6.18;1.45;;;25.30;70.10;;;;;;4946386;28;93124;-82
2023/08/13 10:30:25;;;;;;;4.85;1.50;;;25.40;69.60;;;;;;4945337;28;96517;-83
2023/08/13 10:32:53;;;;;;;8.45;1.70;;;25.50;70.90;;;;;;4967351;28;95887;-83
2023/08/13 10:35:23;;;;;;;8.80;2.47;;;25.60;69.60;;;;;;4947600;28;93337;-85
2023/08/13 10:37:51;;;;;;;5.68;1.50;;;25.70;68.00;;;;;;4956984;28;92588;-85
2023/08/13 10:40:19;;;;;;;7.47;1.60;;;25.80;67.90;;;;;;4973125;28;96587;-85
2023/08/13 10:42:47;;;;;;;7.97;2.13;;;26.00;66.40;;;;;;4954389;28;95283;-83
2023/08/13 10:45:18;;;;;;;7.75;1.55;;;26.00;68.50;;;;;;4954107;28;93026;-84
2023/08/13 10:47:54;;;;;;;8.18;1.80;;;26.10;65.90;;;;;;4964186;28;92722;-83
2023/08/13 10:50:28;;;;;;;8.70;1.70;;;26.10;65.90;;;;;;4946107;28;97756;-87
2023/08/13 10:53:10;;;;;;;6.72;1.60;;;26.30;65.80;;;;;;4964157;28;99813;-84
2023/08/13 10:55:42;;;;;;;5.57;1.67;;;26.40;69.40;;;;;;4970793;28;92227;-87
2023/08/13 10:58:27;;;;;;;5.93;1.55;;;26.60;67.10;;;;;;4963694;28;91528;-87
2023/08/13 11:01:10;;;;;;;6.32;1.67;;;26.80;65.10;;;;;;4956712;28;96657;-85
2023/08/13 11:03:47;;;;;;;9.18;1.92;;;26.80;65.10;;;;;;4956949;28;95250;-85
2023/08/13 11:06:17;;;;;;;9.50;1.83;;;26.90;63.70;;;;;;4950328;28;93640;-84
2023/08/13 11:08:46;;;;;;;10.02;2.05;;;26.90;64.80;;;;;;4974861;28;92733;-87
2023/08/13 11:11:16;;;;;;;6.22;1.88;;;26.90;66.90;;;;;;4951084;28;95671;-86
2023/08/13 11:13:41;;;;;;;6.97;1.75;;;27.10;63.40;;;;;;4949566;28;94830;-84
2023/08/13 11:16:07;;;;;;;6.97;1.92;;;27.30;64.10;;;;;;4975470;28;92403;-89
2023/08/13 11:18:33;;;;;;;7.18;1.67;;;27.50;66.00;;;;;;4957692;28;92921;-87
2023/08/13 11:21:00;;;;;;;7.20;1.40;;;27.70;62.80;;;;;;4958727;28;95137;-86
2023/08/13 11:23:26;;;;;;;6.65;1.42;;;27.80;61.00;;;;;;4950345;28;96124;-85
2023/08/13 11:25:52;;;;;;;8.15;1.77;;;27.80;61.00;;;;;;4950026;28;92852;-85
2023/08/13 11:28:26;;;;;;;7.90;1.85;;;27.90;60.30;;;;;;4966548;28;92575;-85
2023/08/13 11:30:54;;;;;;;5.07;1.55;;;27.90;64.00;;;;;;4957792;28;97234;-86
2023/08/13 11:33:20;;;;;;;5.60;1.25;;;27.80;58.60;;;;;;4949982;28;96833;-86
2023/08/13 11:35:46;;;;;;;7.07;1.98;;;27.50;59.00;;;;;;4965429;28;92136;-85
2023/08/13 11:38:13;;;;;;;5.03;1.20;;;27.30;60.00;;;;;;4968125;28;92335;-87
2023/08/13 11:40:38;;;;;;;8.20;1.60;;;26.90;59.00;;;;;;4948977;28;96465;-85
2023/08/13 11:43:08;;;;;;;6.50;1.27;;;26.70;61.50;;;;;;4966203;28;96912;-86
2023/08/13 11:45:34;;;;;;;6.47;1.48;;;26.50;61.50;;;;;;4972493;28;92807;-86
2023/08/13 11:48:10;;;;;;;4.40;1.42;;;26.50;62.20;;;;;;4965726;28;92361;-82
2023/08/13 11:50:36;;;;;;;5.35;1.42;;;26.50;64.10;;;;;;4955717;28;99716;-84
2023/08/13 11:53:15;;;;;;;7.78;1.70;;;26.60;62.20;;;;;;4948809;28;95549;-86
2023/08/13 11:55:48;;;;;;;10.30;1.95;;;26.60;62.10;;;;;;4947694;28;93283;-84
2023/08/13 11:58:19;;;;;;;9.45;1.38;;;26.50;60.50;;;;;;4956279;28;92838;-85
2023/08/13 12:00:47;;;;;;;6.60;1.65;;;26.30;62.40;;;;;;4972345;28;96437;-86
2023/08/13 12:03:13;;;;;;;5.18;1.50;;;26.30;62.90;;;;;;4947447;28;97171;-88
2023/08/13 12:05:39;;;;;;;8.90;2.25;;;26.30;64.20;;;;;;4950470;28;92502;-86
2023/08/13 12:08:09;;;;;;;8.00;1.35;;;26.40;62.50;;;;;;4963832;28;92879;-86
2023/08/13 12:10:35;;;;;;;7.45;1.80;;;26.50;63.40;;;;;;4963858;28;96670;-88
2023/08/13 12:13:01;;;;;;;11.02;2.72;;;26.60;61.00;;;;;;4971932;28;96417;-87
2023/08/13 12:15:28;;;;;;;7.93;1.90;;;26.50;61.10;;;;;;4965643;28;92235;-87
2023/08/13 12:17:55;;;;;;;5.00;1.05;;;26.60;60.10;;;;;;4965017;28;92670;-87
2023/08/13 12:20:22;;;;;;;6.65;1.75;;;26.70;62.00;;;;;;4946933;28;97644;-86
2023/08/13 12:22:48;;;;;;;5.03;1.40;;;26.80;59.40;;;;;;4948140;28;97413;-86
2023/08/13 12:25:14;;;;;;;9.40;1.50;;;26.80;56.70;;;;;;4971313;28;100042;-85
2023/08/13 12:27:41;;;;;;;7.55;1.52;;;26.60;57.60;;;;;;4949640;28;93751;-86
2023/08/13 12:30:12;;;;;;;6.20;1.10;;;26.60;58.60;;;;;;4945506;28;96231;-87
2023/08/13 12:32:38;;;;;;;2.92;1.05;;;26.70;56.90;;;;;;4956546;28;95448;-88
2023/08/13 12:35:04;;;;;;;4.25;1.48;;;26.70;56.90;;;;;;4947945;28;92551;-86
2023/08/13 12:37:29;;;;;;;6.15;1.58;;;26.80;53.70;;;;;;4956689;28;92306;-87
2023/08/13 12:39:55;;;;;;;8.63;1.55;;;26.80;54.90;;;;;;4948845;28;96622;-87
2023/08/13 12:42:21;;;;;;;8.90;2.35;;;26.80;55.80;;;;;;4965818;28;96288;-87